Time;durP1;ratioP1;P1;durP2;ratioP2;P2;SDS_P1;SDS_P2;PMS_P1;PMS_P2;Temp;Humidity;BMP_temperature;BMP_pressure;BME280_temperature;BME280_humidity;BME280_pressure;Samples;Min_cycle;Max_cycle;Signal;HPM_P1;HPM_P2
2023/10/18 00:02:16;;;;;;;6.37;4.70;;;0.80;80.80;;;;;;5011899;28;20480;-57
2023/10/18 00:04:45;;;;;;;5.33;4.20;;;0.80;70.70;;;;;;5004237;28;20550;-57
2023/10/18 00:07:13;;;;;;;13.13;4.60;;;0.90;69.90;;;;;;5011710;28;20513;-56
2023/10/18 00:09:45;;;;;;;5.17;4.37;;;0.90;73.50;;;;;;5008866;28;20466;-56
2023/10/18 00:12:16;;;;;;;4.57;4.17;;;0.80;76.50;;;;;;5009922;28;20459;-57
2023/10/18 00:14:43;;;;;;;9.77;4.97;;;0.70;82.70;;;;;;5002094;28;20567;-57
2023/10/18 00:17:10;;;;;;;10.67;7.57;;;0.60;85.40;;;;;;5005549;28;20869;-57
2023/10/18 00:19:37;;;;;;;9.57;6.53;;;0.60;86.20;;;;;;5015048;28;20451;-57
2023/10/18 00:22:06;;;;;;;8.30;5.70;;;0.60;79.70;;;;;;5014371;28;20732;-57
2023/10/18 00:24:34;;;;;;;6.00;5.10;;;0.60;74.60;;;;;;5007725;28;20530;-56
2023/10/18 00:27:01;;;;;;;6.20;4.17;;;0.70;80.10;;;;;;5000757;28;20475;-56
2023/10/18 00:29:27;;;;;;;14.53;5.00;;;0.70;77.20;;;;;;4999026;28;20460;-56
2023/10/18 00:31:54;;;;;;;5.67;4.73;;;0.80;79.40;;;;;;5005837;28;20503;-57
2023/10/18 00:34:21;;;;;;;6.60;4.50;;;0.80;79.40;;;;;;5013534;28;20488;-58
2023/10/18 00:36:48;;;;;;;7.40;5.43;;;0.70;89.90;;;;;;5004292;28;20445;-57
2023/10/18 00:39:20;;;;;;;10.50;5.27;;;0.60;85.80;;;;;;5012396;28;20513;-57
2023/10/18 00:41:52;;;;;;;11.77;5.00;;;0.50;86.00;;;;;;5006450;28;20463;-56
2023/10/18 00:44:21;;;;;;;11.43;4.90;;;0.60;77.50;;;;;;5006876;28;20497;-56
2023/10/18 00:46:47;;;;;;;6.40;5.40;;;0.60;81.20;;;;;;5013302;28;20558;-56
2023/10/18 00:49:14;;;;;;;5.87;4.90;;;0.60;77.90;;;;;;5014277;28;20467;-57
2023/10/18 00:51:43;;;;;;;5.60;4.60;;;0.50;85.10;;;;;;5014137;28;20494;-57
2023/10/18 00:54:11;;;;;;;7.20;5.47;;;0.40;84.60;;;;;;5007587;28;20515;-58
2023/10/18 00:56:40;;;;;;;5.67;5.13;;;0.40;85.50;;;;;;5016357;28;20436;-57
2023/10/18 00:59:07;;;;;;;6.50;5.90;;;0.50;72.50;;;;;;5016687;28;20468;-57
2023/10/18 01:01:41;;;;;;;13.40;4.70;;;0.50;76.80;;;;;;4998914;28;20459;-58
2023/10/18 01:04:08;;;;;;;6.67;5.33;;;0.60;78.90;;;;;;5009350;28;20491;-58
2023/10/18 01:06:36;;;;;;;7.80;5.70;;;0.60;77.80;;;;;;5020461;28;20511;-56
2023/10/18 01:09:04;;;;;;;10.17;5.63;;;0.60;82.20;;;;;;5020874;28;20666;-57
2023/10/18 01:11:31;;;;;;;6.57;5.10;;;0.40;84.70;;;;;;5030568;28;20525;-57
2023/10/18 01:14:00;;;;;;;6.40;5.70;;;0.50;82.30;;;;;;5020394;28;20773;-56
2023/10/18 01:16:29;;;;;;;6.80;5.80;;;0.40;84.50;;;;;;5011397;28;20521;-56
2023/10/18 01:18:56;;;;;;;8.30;5.70;;;0.40;84.20;;;;;;5011247;28;20468;-60
2023/10/18 01:21:24;;;;;;;9.67;6.00;;;0.40;75.90;;;;;;5014223;28;20445;-58
2023/10/18 01:23:52;;;;;;;9.40;5.67;;;0.30;80.80;;;;;;5018441;28;20570;-56
2023/10/18 01:26:21;;;;;;;6.93;5.63;;;0.30;79.20;;;;;;5007539;28;20463;-56
2023/10/18 01:28:48;;;;;;;6.13;5.53;;;0.20;77.10;;;;;;5014246;28;20455;-57
2023/10/18 01:31:15;;;;;;;7.67;5.27;;;0.20;72.30;;;;;;5005188;28;20515;-57
2023/10/18 01:33:43;;;;;;;12.47;5.40;;;0.40;63.90;;;;;;5010669;28;20775;-57
2023/10/18 01:36:13;;;;;;;6.77;5.73;;;0.40;68.00;;;;;;5011405;28;20455;-57
2023/10/18 01:38:42;;;;;;;9.70;6.57;;;0.50;70.90;;;;;;5007791;28;20483;-57
2023/10/18 01:41:12;;;;;;;7.97;5.33;;;0.50;75.10;;;;;;5013745;28;20483;-57
2023/10/18 01:43:43;;;;;;;7.70;6.00;;;0.40;75.00;;;;;;5008599;28;21626;-56
2023/10/18 01:46:13;;;;;;;9.97;5.63;;;0.50;75.80;;;;;;5002689;28;20468;-56
2023/10/18 01:48:40;;;;;;;10.70;5.10;;;0.50;75.90;;;;;;5003693;28;20479;-57
2023/10/18 01:51:07;;;;;;;7.03;6.07;;;0.40;75.30;;;;;;5005217;28;20467;-56
2023/10/18 01:53:34;;;;;;;7.00;6.30;;;0.40;75.00;;;;;;5005614;28;20451;-56
2023/10/18 01:56:02;;;;;;;6.87;5.43;;;0.40;74.80;;;;;;5019833;28;20538;-56
2023/10/18 01:58:30;;;;;;;7.33;5.70;;;0.50;69.20;;;;;;5007670;28;20464;-57
2023/10/18 02:01:01;;;;;;;11.40;6.10;;;0.50;76.10;;;;;;5008421;28;20467;-60
2023/10/18 02:03:28;;;;;;;13.97;7.43;;;0.40;79.10;;;;;;5005692;28;20494;-56
2023/10/18 02:05:56;;;;;;;7.93;6.77;;;0.30;75.00;;;;;;5009605;28;20874;-56
2023/10/18 02:08:22;;;;;;;9.37;6.00;;;0.40;72.40;;;;;;5004635;28;20464;-57
2023/10/18 02:10:50;;;;;;;6.33;5.73;;;0.40;66.80;;;;;;4998328;28;20465;-57
2023/10/18 02:13:18;;;;;;;6.13;5.50;;;0.40;73.00;;;;;;5008007;28;20463;-57
2023/10/18 02:15:45;;;;;;;6.03;5.43;;;0.40;75.30;;;;;;5022384;28;20483;-57
2023/10/18 02:18:14;;;;;;;8.70;6.00;;;0.40;75.80;;;;;;5019265;28;20464;-57
2023/10/18 02:20:42;;;;;;;9.70;6.90;;;0.40;76.80;;;;;;5030088;28;20845;-57
2023/10/18 02:23:11;;;;;;;7.93;6.10;;;0.30;80.60;;;;;;5030881;28;20487;-60
2023/10/18 02:25:45;;;;;;;6.20;5.70;;;0.30;78.70;;;;;;5021897;28;20508;-58
2023/10/18 02:28:23;;;;;;;10.43;6.77;;;0.30;76.50;;;;;;5017304;28;20455;-60
2023/10/18 02:30:55;;;;;;;7.30;5.60;;;0.30;71.40;;;;;;5008952;28;21034;-63
2023/10/18 02:33:26;;;;;;;6.73;6.03;;;0.30;77.00;;;;;;5014207;28;20525;-58
2023/10/18 02:35:57;;;;;;;7.10;5.57;;;0.30;80.00;;;;;;5005591;28;20875;-58
2023/10/18 02:38:24;;;;;;;11.60;6.50;;;0.20;80.20;;;;;;5004668;28;20467;-58
2023/10/18 02:40:51;;;;;;;8.37;6.00;;;0.20;80.80;;;;;;5004085;28;20537;-58
2023/10/18 02:43:18;;;;;;;5.70;5.07;;;0.20;75.50;;;;;;5007925;28;20490;-58
2023/10/18 02:45:51;;;;;;;5.93;5.33;;;0.10;73.60;;;;;;5002861;28;20480;-57
2023/10/18 02:48:22;;;;;;;8.87;5.70;;;0.10;70.90;;;;;;5008243;28;21179;-58
2023/10/18 02:50:51;;;;;;;8.13;5.90;;;0.10;73.10;;;;;;5003540;28;20463;-58
2023/10/18 02:53:20;;;;;;;7.90;5.43;;;0.20;70.50;;;;;;5005897;28;20460;-57
2023/10/18 02:55:55;;;;;;;8.83;5.27;;;0.30;72.90;;;;;;5004925;28;20499;-58
2023/10/18 02:58:27;;;;;;;5.27;4.50;;;0.30;70.60;;;;;;5008739;28;20521;-57
2023/10/18 03:00:55;;;;;;;5.70;5.20;;;0.40;73.00;;;;;;5004722;28;20554;-57
2023/10/18 03:03:22;;;;;;;11.03;5.77;;;0.30;78.10;;;;;;4995971;28;20484;-57
2023/10/18 03:05:51;;;;;;;8.53;5.70;;;0.20;81.60;;;;;;5007410;28;20483;-57
2023/10/18 03:08:20;;;;;;;5.53;5.00;;;0.20;74.80;;;;;;5005863;28;20468;-56
2023/10/18 03:10:48;;;;;;;8.03;5.30;;;0.10;81.40;;;;;;5006724;28;20957;-56
2023/10/18 03:13:18;;;;;;;6.60;5.50;;;0.10;79.70;;;;;;5001612;28;20829;-56
2023/10/18 03:16:03;;;;;;;6.50;5.10;;;0.20;74.70;;;;;;4999558;28;20484;-56
2023/10/18 03:18:30;;;;;;;7.10;4.90;;;0.20;73.80;;;;;;5008108;28;20463;-56
2023/10/18 03:20:58;;;;;;;6.90;5.30;;;0.20;83.30;;;;;;5001179;28;21024;-57
2023/10/18 03:23:27;;;;;;;5.80;4.57;;;0.20;73.90;;;;;;5005080;28;20506;-56
2023/10/18 03:26:01;;;;;;;6.07;5.30;;;0.20;72.80;;;;;;5008205;28;20578;-56
2023/10/18 03:28:34;;;;;;;6.23;4.77;;;0.30;78.20;;;;;;5004238;28;20449;-56
2023/10/18 03:31:04;;;;;;;5.33;4.80;;;0.30;79.20;;;;;;5011987;28;20542;-56
2023/10/18 03:33:32;;;;;;;8.77;5.27;;;0.20;77.20;;;;;;5003322;28;21004;-56
2023/10/18 03:36:17;;;;;;;6.40;4.87;;;0.40;72.10;;;;;;5002298;28;20594;-57
2023/10/18 03:38:51;;;;;;;5.90;5.13;;;0.20;88.60;;;;;;5008781;28;20457;-57
2023/10/18 03:41:19;;;;;;;5.53;5.13;;;0.10;89.90;;;;;;5004920;28;20500;-57
2023/10/18 03:43:48;;;;;;;6.27;5.37;;;0.00;87.70;;;;;;5001094;28;20559;-56
2023/10/18 03:46:18;;;;;;;6.77;5.50;;;0.10;81.80;;;;;;5005231;28;20477;-56
2023/10/18 03:48:47;;;;;;;5.93;5.27;;;0.00;83.50;;;;;;5005302;28;20539;-56
2023/10/18 03:51:19;;;;;;;6.20;4.60;;;0.00;80.10;;;;;;5004399;28;20464;-56
2023/10/18 03:56:22;;;;;;;8.30;5.10;;;0.10;75.80;;;;;;5044821;28;20516;-55
2023/10/18 03:59:00;;;;;;;12.03;5.77;;;0.10;75.90;;;;;;5051056;28;20462;-55
2023/10/18 04:01:28;;;;;;;5.63;5.10;;;0.00;85.30;;;;;;5048230;28;20552;-63
2023/10/18 04:03:56;;;;;;;5.43;4.97;;;-0.10;87.50;;;;;;5040181;28;20597;-61
2023/10/18 04:06:28;;;;;;;6.50;5.57;;;0.00;78.30;;;;;;5050850;28;20497;-63
2023/10/18 04:08:58;;;;;;;6.93;5.30;;;-0.10;84.60;;;;;;5049115;28;20544;-63
2023/10/18 04:11:26;;;;;;;6.77;5.47;;;-0.10;81.30;;;;;;5049946;28;20842;-62
2023/10/18 04:13:53;;;;;;;6.70;5.83;;;-0.10;76.90;;;;;;5050674;28;20446;-63
2023/10/18 04:16:28;;;;;;;5.53;5.03;;;0.00;74.50;;;;;;5048710;28;20505;-63
2023/10/18 04:18:56;;;;;;;5.93;5.20;;;0.00;72.60;;;;;;5051274;28;20447;-62
2023/10/18 04:21:26;;;;;;;6.67;5.53;;;0.20;71.60;;;;;;5050970;28;20469;-62
2023/10/18 04:23:54;;;;;;;5.90;5.10;;;0.00;79.50;;;;;;5042026;28;20481;-63
2023/10/18 04:26:21;;;;;;;6.33;5.70;;;0.00;85.90;;;;;;5036136;28;20555;-63
2023/10/18 04:28:54;;;;;;;8.10;5.47;;;0.00;84.30;;;;;;5040857;28;20466;-62
2023/10/18 04:31:22;;;;;;;8.33;5.50;;;0.00;77.50;;;;;;5038696;28;21023;-61
2023/10/18 04:33:50;;;;;;;7.53;5.27;;;-0.10;78.20;;;;;;5042452;28;20553;-62
2023/10/18 04:36:20;;;;;;;6.33;5.53;;;0.00;73.40;;;;;;5042314;28;20808;-56
2023/10/18 04:38:49;;;;;;;11.90;5.80;;;-0.10;81.90;;;;;;5038596;28;20539;-55
2023/10/18 04:41:26;;;;;;;5.37;4.73;;;-0.10;84.00;;;;;;5036556;28;20560;-55
2023/10/18 04:43:59;;;;;;;6.50;5.00;;;-0.10;80.00;;;;;;5042532;28;20568;-55
2023/10/18 04:46:29;;;;;;;11.90;6.13;;;-0.10;83.00;;;;;;5045004;28;20556;-55
2023/10/18 04:49:16;;;;;;;8.40;4.97;;;-0.20;82.90;;;;;;5049354;28;20458;-55
2023/10/18 04:51:44;;;;;;;6.73;5.67;;;-0.20;84.20;;;;;;5047409;28;20470;-55
2023/10/18 04:54:16;;;;;;;6.83;4.80;;;-0.20;83.50;;;;;;5047409;28;21012;-58
2023/10/18 04:56:44;;;;;;;15.73;5.83;;;-0.10;72.50;;;;;;5050736;28;20437;-60
2023/10/18 04:59:11;;;;;;;5.93;5.27;;;-0.10;81.50;;;;;;5049850;28;20927;-60
2023/10/18 05:01:42;;;;;;;8.50;4.53;;;-0.20;84.60;;;;;;5039895;28;20458;-59
2023/10/18 05:04:20;;;;;;;8.57;5.10;;;-0.20;83.80;;;;;;5045078;28;20517;-60
2023/10/18 05:06:54;;;;;;;6.17;5.50;;;0.00;69.40;;;;;;5041443;28;20495;-61
2023/10/18 05:09:30;;;;;;;6.57;5.20;;;0.00;80.10;;;;;;5044584;28;20489;-58
2023/10/18 05:11:58;;;;;;;5.47;5.00;;;-0.10;78.30;;;;;;5043954;28;20981;-60
2023/10/18 05:14:40;;;;;;;11.30;5.23;;;-0.10;81.90;;;;;;5042838;28;20519;-59
2023/10/18 05:17:10;;;;;;;6.87;5.20;;;-0.20;82.80;;;;;;5051353;28;20969;-60
2023/10/18 05:19:41;;;;;;;6.60;5.87;;;-0.20;82.40;;;;;;5042775;28;20834;-59
2023/10/18 05:22:09;;;;;;;13.73;5.43;;;-0.20;80.60;;;;;;5041455;28;20521;-59
2023/10/18 05:24:38;;;;;;;5.63;4.97;;;-0.20;83.30;;;;;;5040233;28;20486;-59
2023/10/18 05:27:19;;;;;;;7.87;5.70;;;-0.10;76.80;;;;;;5044351;28;20535;-59
2023/10/18 05:29:52;;;;;;;6.87;6.17;;;0.00;75.60;;;;;;5048310;28;20552;-59
2023/10/18 05:32:37;;;;;;;4.93;4.40;;;-0.10;80.80;;;;;;5049912;28;20472;-59
2023/10/18 05:35:19;;;;;;;5.83;5.20;;;-0.10;81.90;;;;;;5048910;28;20476;-59
2023/10/18 05:37:50;;;;;;;17.73;4.90;;;-0.10;84.10;;;;;;5041772;28;20465;-59
2023/10/18 05:43:03;;;;;;;5.90;5.03;;;-0.20;83.10;;;;;;5033775;28;20541;-59
2023/10/18 05:45:31;;;;;;;6.00;5.40;;;-0.20;82.70;;;;;;5046614;28;20548;-59
2023/10/18 05:48:02;;;;;;;8.30;5.30;;;-0.20;83.40;;;;;;5041010;28;20463;-58
2023/10/18 05:50:31;;;;;;;5.90;5.30;;;-0.20;83.70;;;;;;5045561;28;20702;-60
2023/10/18 05:53:06;;;;;;;14.23;5.80;;;-0.10;76.00;;;;;;5035978;28;20517;-59
2023/10/18 05:55:38;;;;;;;5.73;5.23;;;-0.10;79.90;;;;;;5043473;28;21097;-59
2023/10/18 05:58:05;;;;;;;6.93;6.20;;;-0.10;84.80;;;;;;5033758;28;20458;-59
2023/10/18 06:00:32;;;;;;;8.83;5.53;;;-0.20;90.20;;;;;;5031617;28;20459;-58
2023/10/18 06:02:59;;;;;;;9.03;6.30;;;-0.20;91.00;;;;;;5045699;28;20462;-58
2023/10/18 06:05:27;;;;;;;6.40;5.80;;;-0.20;90.50;;;;;;5040493;28;20995;-59
2023/10/18 06:07:54;;;;;;;9.70;5.77;;;-0.20;90.50;;;;;;5037275;28;20935;-58
2023/10/18 06:10:23;;;;;;;9.13;6.27;;;-0.10;88.60;;;;;;5039360;28;20462;-60
2023/10/18 06:12:56;;;;;;;8.43;5.50;;;-0.10;87.70;;;;;;5036659;28;20552;-58
2023/10/18 06:15:34;;;;;;;9.47;6.30;;;-0.10;86.80;;;;;;5035500;28;20998;-59
2023/10/18 06:18:01;;;;;;;6.53;5.43;;;0.00;78.80;;;;;;5039259;28;20560;-59
2023/10/18 06:20:28;;;;;;;8.70;6.10;;;0.00;82.90;;;;;;5045784;28;20501;-59
2023/10/18 06:23:08;;;;;;;5.93;5.33;;;0.10;82.00;;;;;;5041950;28;20462;-59
2023/10/18 06:25:37;;;;;;;7.53;5.63;;;0.10;83.60;;;;;;5046460;28;20481;-60
2023/10/18 06:28:07;;;;;;;5.50;4.50;;;0.10;85.80;;;;;;5039459;28;20955;-59
2023/10/18 06:30:39;;;;;;;7.27;4.40;;;0.20;83.20;;;;;;5050004;28;20462;-58
2023/10/18 06:33:09;;;;;;;12.20;5.17;;;0.20;82.10;;;;;;5047401;28;20446;-58
2023/10/18 06:35:42;;;;;;;8.63;5.50;;;0.30;82.90;;;;;;5047320;28;20465;-57
2023/10/18 06:38:17;;;;;;;6.10;5.50;;;0.40;84.10;;;;;;5044698;28;20989;-58
2023/10/18 06:40:50;;;;;;;6.53;5.30;;;0.40;86.30;;;;;;5048157;28;20515;-59
2023/10/18 06:43:19;;;;;;;7.60;5.77;;;0.50;88.70;;;;;;5042965;28;20507;-58
2023/10/18 06:45:48;;;;;;;6.53;5.50;;;0.60;89.30;;;;;;5039007;28;20496;-57
2023/10/18 06:48:15;;;;;;;8.90;5.70;;;0.60;90.50;;;;;;5045924;28;20473;-58
2023/10/18 06:50:45;;;;;;;7.17;5.40;;;0.70;90.00;;;;;;5044118;28;20458;-60
2023/10/18 06:53:12;;;;;;;11.93;5.17;;;0.70;89.90;;;;;;5046233;28;20900;-58
2023/10/18 06:55:44;;;;;;;10.37;5.17;;;0.90;90.30;;;;;;5043157;28;21068;-58
2023/10/18 06:58:15;;;;;;;8.80;4.97;;;0.90;89.70;;;;;;5043518;28;20939;-58
2023/10/18 07:00:51;;;;;;;7.67;5.67;;;1.00;89.90;;;;;;5042407;28;20832;-58
2023/10/18 07:03:18;;;;;;;8.60;4.80;;;1.10;92.20;;;;;;5043039;28;20537;-59
2023/10/18 07:05:49;;;;;;;7.53;5.53;;;1.20;87.80;;;;;;5034423;28;20493;-59
2023/10/18 07:08:25;;;;;;;10.57;7.50;;;1.30;87.70;;;;;;5046047;28;20981;-58
2023/10/18 07:10:54;;;;;;;7.93;5.63;;;1.40;83.30;;;;;;5045844;28;20457;-58
2023/10/18 07:13:32;;;;;;;5.90;5.23;;;1.50;81.60;;;;;;5037163;28;20557;-58
2023/10/18 07:16:03;;;;;;;8.23;4.97;;;1.60;79.50;;;;;;5040869;28;20530;-58
2023/10/18 07:18:33;;;;;;;6.60;5.53;;;1.70;82.10;;;;;;5047273;28;20985;-59
2023/10/18 07:21:05;;;;;;;9.77;6.40;;;1.80;81.40;;;;;;5039853;28;20455;-60
2023/10/18 07:23:36;;;;;;;6.60;5.90;;;1.80;80.50;;;;;;5033268;28;20439;-59
2023/10/18 07:26:03;;;;;;;14.07;6.40;;;2.00;79.20;;;;;;5037894;28;20494;-58
2023/10/18 07:28:35;;;;;;;10.43;6.17;;;2.20;81.90;;;;;;5036798;28;21220;-58
2023/10/18 07:31:08;;;;;;;16.73;11.10;;;2.20;82.50;;;;;;5040551;28;21221;-59
2023/10/18 07:33:39;;;;;;;16.63;11.00;;;2.40;82.10;;;;;;5034182;28;20472;-59
2023/10/18 07:36:07;;;;;;;13.60;7.90;;;2.50;82.10;;;;;;5036222;28;20470;-59
2023/10/18 07:38:37;;;;;;;12.47;8.20;;;2.70;80.30;;;;;;5033017;28;20516;-59
2023/10/18 07:41:07;;;;;;;14.90;7.50;;;2.80;82.70;;;;;;5048308;28;20445;-60
2023/10/18 07:43:34;;;;;;;14.20;8.73;;;2.90;84.40;;;;;;5030922;28;20473;-58
2023/10/18 07:46:06;;;;;;;12.63;8.27;;;3.10;85.60;;;;;;5033704;28;20516;-60
2023/10/18 07:48:37;;;;;;;13.60;8.33;;;3.20;85.10;;;;;;5044485;28;20476;-60
2023/10/18 07:51:15;;;;;;;11.00;7.30;;;3.50;86.70;;;;;;5030525;28;20469;-59
2023/10/18 07:53:42;;;;;;;10.70;6.83;;;3.70;88.80;;;;;;5039903;28;20458;-61
2023/10/18 07:56:11;;;;;;;13.63;7.37;;;4.20;91.00;;;;;;5038551;28;20465;-61
2023/10/18 07:58:47;;;;;;;17.60;12.23;;;4.50;95.50;;;;;;5042770;28;20462;-60
2023/10/18 08:01:14;;;;;;;10.60;6.53;;;4.50;98.40;;;;;;5037013;28;21098;-57
2023/10/18 08:03:43;;;;;;;13.40;8.60;;;4.70;97.90;;;;;;5034028;28;20461;-54
2023/10/18 08:06:16;;;;;;;12.47;7.30;;;4.80;96.30;;;;;;5044831;28;20486;-55
2023/10/18 08:08:43;;;;;;;11.33;7.63;;;4.90;92.90;;;;;;5041591;28;20469;-55
2023/10/18 08:11:12;;;;;;;12.37;6.90;;;4.90;88.90;;;;;;5042891;28;20435;-55
2023/10/18 08:13:45;;;;;;;15.73;7.40;;;5.00;83.20;;;;;;5038244;28;20462;-55
2023/10/18 08:16:19;;;;;;;13.20;7.83;;;5.10;78.40;;;;;;5044403;28;20970;-55
2023/10/18 08:18:53;;;;;;;10.00;6.57;;;5.40;70.10;;;;;;5043839;28;20461;-54
2023/10/18 08:21:37;;;;;;;8.47;6.57;;;5.50;58.20;;;;;;5035720;28;20463;-55
2023/10/18 08:24:08;;;;;;;8.30;7.43;;;5.80;49.70;;;;;;5039908;28;20536;-55
2023/10/18 08:26:46;;;;;;;11.67;7.40;;;6.00;49.90;;;;;;5045888;28;20476;-54
2023/10/18 08:29:13;;;;;;;9.07;8.10;;;6.20;46.30;;;;;;5037445;28;20519;-54
2023/10/18 08:31:40;;;;;;;9.73;7.70;;;6.40;47.00;;;;;;5039558;28;20455;-55
2023/10/18 08:34:11;;;;;;;7.50;6.80;;;6.60;47.80;;;;;;5034883;28;20860;-55
2023/10/18 08:36:38;;;;;;;9.23;7.20;;;6.80;50.30;;;;;;5042939;28;20839;-56
2023/10/18 08:39:08;;;;;;;10.67;6.63;;;7.00;53.00;;;;;;5049363;28;20472;-55
2023/10/18 08:41:37;;;;;;;9.20;5.63;;;7.20;55.50;;;;;;5042437;28;20536;-55
2023/10/18 08:44:15;;;;;;;9.80;6.57;;;7.40;64.80;;;;;;5049446;28;20471;-55
2023/10/18 08:46:51;;;;;;;7.83;7.00;;;7.50;72.50;;;;;;5051029;28;20552;-55
2023/10/18 08:49:23;;;;;;;8.30;6.00;;;7.60;86.00;;;;;;5047448;28;20461;-55
2023/10/18 08:52:04;;;;;;;10.23;6.70;;;7.80;94.60;;;;;;5050896;28;20461;-55
2023/10/18 08:54:33;;;;;;;9.20;6.47;;;8.00;99.90;;;;;;5040074;28;20485;-55
2023/10/18 08:57:06;;;;;;;7.30;6.00;;;8.30;99.90;;;;;;5041196;28;20610;-55
2023/10/18 08:59:42;;;;;;;7.80;6.83;;;8.60;99.90;;;;;;5042400;28;20458;-56
2023/10/18 09:02:13;;;;;;;12.37;5.87;;;8.70;99.90;;;;;;5041254;28;20469;-55
2023/10/18 09:04:44;;;;;;;7.63;5.87;;;8.80;99.90;;;;;;5044132;28;20998;-56
2023/10/18 09:07:21;;;;;;;12.90;5.70;;;8.90;99.90;;;;;;5034274;28;21000;-56
2023/10/18 09:09:55;;;;;;;9.27;5.10;;;9.00;99.90;;;;;;5034486;28;20593;-55
2023/10/18 09:12:33;;;;;;;7.17;5.80;;;9.20;99.90;;;;;;5038292;28;20952;-56
2023/10/18 09:14:59;;;;;;;20.83;6.57;;;9.30;99.90;;;;;;5040241;28;20634;-56
2023/10/18 09:17:26;;;;;;;7.17;5.00;;;9.40;99.90;;;;;;5049218;28;20954;-55
2023/10/18 09:19:55;;;;;;;9.63;4.87;;;9.50;99.90;;;;;;5042414;28;20517;-55
2023/10/18 09:22:22;;;;;;;10.00;5.00;;;10.10;99.90;;;;;;5041927;28;20883;-55
2023/10/18 09:24:49;;;;;;;5.97;4.30;;;11.40;99.90;;;;;;5046031;28;20484;-55
2023/10/18 09:27:15;;;;;;;4.90;4.37;;;12.10;71.60;;;;;;5041608;28;20927;-55
2023/10/18 09:29:42;;;;;;;7.43;4.20;;;12.40;95.10;;;;;;5046609;28;20492;-56
2023/10/18 09:32:21;;;;;;;4.07;3.77;;;13.30;99.90;;;;;;5037181;28;20455;-56
2023/10/18 09:34:49;;;;;;;6.00;4.77;;;13.70;99.90;;;;;;5042563;28;20492;-55
2023/10/18 09:37:29;;;;;;;6.83;4.70;;;12.80;99.90;;;;;;5045875;28;20459;-55
2023/10/18 09:39:56;;;;;;;6.07;4.30;;;12.50;99.90;;;;;;5045829;28;20458;-55
2023/10/18 09:42:23;;;;;;;10.87;5.17;;;12.90;99.90;;;;;;5044245;28;20935;-55
2023/10/18 09:44:50;;;;;;;4.90;4.50;;;12.10;99.90;;;;;;5044618;28;20543;-55
2023/10/18 09:47:18;;;;;;;6.50;5.00;;;11.60;99.90;;;;;;5036480;28;21043;-55
2023/10/18 09:49:46;;;;;;;7.30;5.60;;;13.20;99.90;;;;;;5036556;28;21018;-55
2023/10/18 09:52:15;;;;;;;5.90;5.27;;;12.20;99.90;;;;;;5046274;28;20462;-55
2023/10/18 09:54:50;;;;;;;7.10;6.37;;;12.70;99.90;;;;;;5057027;22;20485;-58
2023/10/18 09:57:23;;;;;;;7.00;6.30;;;12.80;99.90;;;;;;5018818;28;20463;-57
2023/10/18 09:59:51;;;;;;;9.37;5.93;;;12.50;99.90;;;;;;5010597;28;20468;-57
2023/10/18 10:02:20;;;;;;;6.60;6.00;;;13.30;99.90;;;;;;5022701;28;20464;-58
2023/10/18 10:04:52;;;;;;;6.73;6.13;;;13.10;99.90;;;;;;5017032;28;20546;-58
2023/10/18 10:10:17;;;;;;;8.17;7.27;;;13.90;99.90;;;;;;5003336;28;20844;-57
2023/10/18 10:12:46;;;;;;;6.27;5.83;;;13.20;99.90;;;;;;4999940;28;20471;-58
2023/10/18 10:15:17;;;;;;;11.17;5.10;;;12.50;99.90;;;;;;5004968;28;20530;-59
2023/10/18 10:17:57;;;;;;;4.67;4.27;;;12.30;99.90;;;;;;5003587;28;20502;-60
2023/10/18 10:20:31;;;;;;;3.43;3.20;;;11.90;99.90;;;;;;5005468;28;20498;-60
2023/10/18 10:23:02;;;;;;;5.70;3.80;;;11.70;99.90;;;;;;5000310;28;20476;-58
2023/10/18 10:25:32;;;;;;;5.60;4.80;;;11.30;99.90;;;;;;4999106;28;21085;-57
2023/10/18 10:28:01;;;;;;;4.97;3.70;;;11.30;99.90;;;;;;5008246;28;20581;-56
2023/10/18 10:30:35;;;;;;;4.10;3.73;;;11.30;99.90;;;;;;5009139;28;20456;-58
2023/10/18 10:33:05;;;;;;;3.83;3.40;;;11.30;99.90;;;;;;5007143;28;20452;-56
2023/10/18 10:35:35;;;;;;;5.43;2.87;;;11.30;99.90;;;;;;5001336;28;20981;-56
2023/10/18 10:38:13;;;;;;;2.93;2.73;;;11.30;99.90;;;;;;5004536;28;20451;-58
2023/10/18 10:40:44;;;;;;;4.13;2.73;;;11.30;99.90;;;;;;5000535;28;20526;-57
2023/10/18 10:43:12;;;;;;;3.60;2.30;;;11.20;99.90;;;;;;5006838;28;20447;-57
2023/10/18 10:45:43;;;;;;;3.77;3.00;;;11.10;99.90;;;;;;5010744;28;20865;-56
2023/10/18 10:48:36;;;;;;;3.30;2.77;;;11.20;99.90;;;;;;5004785;28;20468;-57
2023/10/18 10:51:08;;;;;;;3.13;2.50;;;11.10;99.90;;;;;;5007843;28;20881;-57
2023/10/18 10:53:43;;;;;;;3.10;2.10;;;11.20;99.90;;;;;;5011689;28;20474;-57
2023/10/18 10:56:18;;;;;;;8.00;4.33;;;11.20;99.90;;;;;;5009195;28;20791;-57
2023/10/18 10:58:54;;;;;;;30.10;17.20;;;11.20;99.90;;;;;;5001665;28;20459;-58
2023/10/18 11:01:31;;;;;;;2.97;2.77;;;11.30;99.90;;;;;;5007400;28;20518;-55
2023/10/18 11:03:59;;;;;;;13.43;9.20;;;11.50;99.90;;;;;;5009535;28;20538;-58
2023/10/18 11:06:29;;;;;;;10.23;7.60;;;11.50;99.90;;;;;;5010221;28;20534;-57
2023/10/18 11:08:56;;;;;;;3.03;2.57;;;11.50;99.90;;;;;;5007771;28;20467;-57
2023/10/18 11:11:26;;;;;;;3.13;2.40;;;11.40;99.90;;;;;;5007826;28;20463;-57
2023/10/18 11:13:53;;;;;;;2.77;2.57;;;11.50;99.90;;;;;;5003388;28;20463;-56
2023/10/18 11:16:20;;;;;;;5.30;3.20;;;11.50;99.90;;;;;;5005136;28;21043;-57
2023/10/18 11:18:49;;;;;;;5.77;3.43;;;11.60;99.90;;;;;;5008261;28;20999;-57
2023/10/18 11:21:24;;;;;;;2.90;2.60;;;11.60;99.90;;;;;;5003671;28;20962;-56
2023/10/18 11:23:56;;;;;;;5.10;2.70;;;11.60;99.90;;;;;;5000751;28;20477;-56
2023/10/18 11:26:25;;;;;;;3.80;2.77;;;11.50;99.90;;;;;;5005047;28;20518;-57
2023/10/18 11:28:55;;;;;;;3.07;2.30;;;11.50;99.90;;;;;;5003108;28;20463;-57
2023/10/18 11:31:26;;;;;;;3.47;2.73;;;11.60;99.90;;;;;;5001616;28;20472;-57
2023/10/18 11:33:57;;;;;;;4.53;2.87;;;11.60;99.90;;;;;;5002516;28;20474;-56
2023/10/18 11:36:27;;;;;;;10.37;8.47;;;11.60;99.90;;;;;;5005413;28;21120;-58
2023/10/18 11:39:19;;;;;;;9.70;7.00;;;11.60;99.90;;;;;;5008161;28;20459;-57
2023/10/18 11:41:53;;;;;;;4.60;3.53;;;11.70;99.90;;;;;;5001368;28;20560;-58
2023/10/18 11:44:27;;;;;;;6.00;2.80;;;11.60;99.90;;;;;;5004526;28;20537;-57
2023/10/18 11:47:01;;;;;;;4.13;2.50;;;11.70;99.90;;;;;;5006414;28;20482;-58
2023/10/18 11:49:35;;;;;;;2.57;2.43;;;11.70;99.90;;;;;;5004643;28;20585;-58
2023/10/18 11:52:02;;;;;;;3.00;2.80;;;11.80;99.90;;;;;;5001228;28;20583;-58
2023/10/18 11:54:31;;;;;;;2.87;2.67;;;11.90;99.90;;;;;;5008086;28;20467;-58
2023/10/18 11:57:00;;;;;;;3.63;3.10;;;12.00;99.90;;;;;;5003911;28;20996;-58
2023/10/18 11:59:29;;;;;;;2.90;2.70;;;12.20;99.90;;;;;;5005585;28;20467;-58
2023/10/18 12:01:57;;;;;;;24.00;17.47;;;12.30;99.90;;;;;;4998251;28;20561;-58
2023/10/18 12:04:28;;;;;;;9.97;8.33;;;12.30;99.90;;;;;;4997822;28;20487;-58
2023/10/18 12:06:56;;;;;;;6.60;5.93;;;12.80;99.90;;;;;;5000800;28;20527;-58
2023/10/18 12:09:26;;;;;;;5.67;3.33;;;13.60;99.90;;;;;;4999101;28;20910;-58
2023/10/18 12:11:54;;;;;;;3.10;2.80;;;13.90;99.90;;;;;;5010254;28;20558;-58
2023/10/18 12:14:23;;;;;;;8.73;6.17;;;14.30;99.90;;;;;;5013209;28;20467;-58
2023/10/18 12:16:51;;;;;;;6.70;4.40;;;14.50;99.90;;;;;;5012914;28;20464;-58
2023/10/18 12:19:18;;;;;;;8.20;7.40;;;14.30;99.90;;;;;;5010660;28;20495;-58
2023/10/18 12:21:48;;;;;;;4.73;4.20;;;14.20;99.90;;;;;;5015928;28;20463;-56
2023/10/18 12:24:15;;;;;;;3.60;3.30;;;13.20;99.90;;;;;;5025414;28;20455;-59
2023/10/18 12:26:45;;;;;;;6.93;3.33;;;13.30;99.90;;;;;;5015888;28;21026;-60
2023/10/18 12:29:15;;;;;;;6.80;6.10;;;13.30;99.90;;;;;;5023938;28;20455;-60
2023/10/18 12:31:52;;;;;;;4.40;4.10;;;13.20;99.90;;;;;;5025538;28;20474;-60
2023/10/18 12:34:21;;;;;;;5.60;4.77;;;13.10;99.90;;;;;;5015041;28;20455;-60
2023/10/18 12:36:49;;;;;;;4.13;3.73;;;12.90;99.90;;;;;;5006877;28;20463;-57
2023/10/18 12:39:20;;;;;;;5.60;3.87;;;12.90;99.90;;;;;;5002306;28;20544;-58
2023/10/18 12:41:52;;;;;;;5.50;3.60;;;12.90;99.90;;;;;;5013497;28;20502;-58
2023/10/18 12:44:19;;;;;;;4.33;2.67;;;12.80;99.90;;;;;;5013731;28;20459;-59
2023/10/18 12:46:50;;;;;;;3.40;3.10;;;12.90;99.90;;;;;;5007865;28;20482;-60
2023/10/18 12:49:22;;;;;;;3.37;3.07;;;13.10;99.90;;;;;;5010585;28;20460;-58
2023/10/18 12:51:57;;;;;;;2.97;2.77;;;12.90;99.90;;;;;;5006771;28;20448;-58
2023/10/18 12:54:29;;;;;;;3.50;3.10;;;12.90;99.90;;;;;;5012739;28;20459;-58
2023/10/18 12:56:56;;;;;;;5.70;3.63;;;12.90;99.90;;;;;;5008393;28;20530;-58
2023/10/18 12:59:27;;;;;;;4.17;3.60;;;13.20;99.90;;;;;;5013085;28;20479;-59
2023/10/18 13:01:59;;;;;;;2.60;2.40;;;13.10;99.90;;;;;;5015974;28;20463;-58
2023/10/18 13:04:25;;;;;;;5.77;3.20;;;13.10;99.90;;;;;;5004250;28;20460;-59
2023/10/18 13:06:53;;;;;;;2.97;2.70;;;12.90;99.90;;;;;;5005531;28;20940;-61
2023/10/18 13:09:20;;;;;;;8.20;5.90;;;12.90;99.90;;;;;;4997963;28;20248;-61
2023/10/18 13:11:54;;;;;;;3.73;3.50;;;13.10;99.90;;;;;;5005455;28;20510;-60
2023/10/18 13:14:29;;;;;;;4.23;3.83;;;13.30;99.90;;;;;;5003999;28;20510;-61
2023/10/18 13:16:58;;;;;;;6.83;3.70;;;13.30;99.90;;;;;;5007151;28;20465;-60